TimeCST,TemperatureF,Dew PointF,Humidity,Sea Level PressureIn,VisibilityMPH,Wind Direction,Wind SpeedMPH,Gust SpeedMPH,PrecipitationIn,Events,Conditions,WindDirDegrees,DateUTC
12:52 AM,25.0,9.0,51,30.15,10.0,NNW,16.1,24.2,N/A,,Clear,330,2013-02-15 06:52:00
1:52 AM,24.1,10.0,55,30.17,-9999.0,NNW,13.8,-,N/A,,Clear,330,2013-02-15 07:52:00
2:52 AM,23.0,8.1,53,30.20,-9999.0,NNW,15.0,21.9,N/A,,Clear,330,2013-02-15 08:52:00
3:52 AM,21.9,7.0,53,30.22,-9999.0,NNW,15.0,-,N/A,,Clear,340,2013-02-15 09:52:00
4:52 AM,21.0,7.0,55,30.24,-9999.0,NNW,11.5,-,N/A,,Clear,330,2013-02-15 10:52:00
5:52 AM,21.0,10.0,63,30.26,-9999.0,NW,10.4,-,N/A,,Clear,320,2013-02-15 11:52:00
6:52 AM,19.9,10.9,68,30.28,-9999.0,WNW,8.1,-,N/A,,Clear,300,2013-02-15 12:52:00
7:52 AM,21.0,12.0,68,30.29,-9999.0,WNW,6.9,-,N/A,,Clear,300,2013-02-15 13:52:00
8:52 AM,23.0,12.9,65,30.30,-9999.0,NW,11.5,-,N/A,,Clear,320,2013-02-15 14:52:00
9:52 AM,25.0,14.0,63,30.31,-9999.0,West,9.2,-,N/A,,Clear,270,2013-02-15 15:52:00
10:52 AM,27.0,15.1,61,30.30,10.0,West,11.5,-,N/A,,Clear,280,2013-02-15 16:52:00
11:52 AM,27.0,9.0,47,30.30,10.0,NNW,12.7,-,N/A,,Partly Cloudy,330,2013-02-15 17:52:00
12:52 PM,27.0,8.1,45,30.29,10.0,NW,17.3,-,N/A,,Partly Cloudy,310,2013-02-15 18:52:00
12:59 PM,26.6,8.6,47,30.26,10.0,NW,15.0,-,N/A,,Partly Cloudy,310,2013-02-15 18:59:00
1:52 PM,26.1,12.0,55,30.28,10.0,NW,17.3,23.0,N/A,,Partly Cloudy,320,2013-02-15 19:52:00
2:52 PM,25.0,12.9,60,30.29,10.0,WNW,17.3,-,N/A,,Overcast,290,2013-02-15 20:52:00
3:52 PM,26.1,12.0,55,30.30,10.0,WNW,13.8,-,N/A,,Overcast,290,2013-02-15 21:52:00
4:52 PM,26.1,10.9,53,30.30,10.0,NW,11.5,-,N/A,,Mostly Cloudy,310,2013-02-15 22:52:00
5:52 PM,25.0,10.9,55,30.31,10.0,NW,11.5,-,N/A,,Scattered Clouds,310,2013-02-15 23:52:00
7:52 PM,23.0,12.0,63,30.31,-9999.0,NW,10.4,-,N/A,,Partly Cloudy,310,2013-02-16 01:52:00
8:52 PM,21.9,10.9,63,30.31,-9999.0,NW,10.4,19.6,N/A,,Partly Cloudy,320,2013-02-16 02:52:00
9:52 PM,21.0,9.0,60,30.31,-9999.0,NW,13.8,-,N/A,,Clear,320,2013-02-16 03:52:00
10:52 PM,19.9,9.0,62,30.31,-9999.0,NNW,11.5,-,N/A,,Clear,330,2013-02-16 04:52:00
11:52 PM,18.0,7.0,62,30.31,-9999.0,NNW,12.7,21.9,N/A,,Clear,330,2013-02-16 05:52:00